createdAt,value
2019-03-05T00:02:00.925Z,22.30
2019-03-05T00:04:28.629Z,22.30
2019-03-05T00:06:56.346Z,22.30
2019-03-05T00:09:24.010Z,22.30
2019-03-05T00:11:51.613Z,22.30
2019-03-05T00:14:21.044Z,22.30
2019-03-05T00:16:48.660Z,22.30
2019-03-05T00:19:16.374Z,22.30
2019-03-05T00:21:44.061Z,22.30
2019-03-05T00:24:29.785Z,22.30
2019-03-05T00:26:57.527Z,22.30
2019-03-05T00:29:26.778Z,22.30
2019-03-05T00:31:54.569Z,22.30
2019-03-05T00:34:32.603Z,22.30
2019-03-05T00:37:10.840Z,22.30
2019-03-05T00:39:40.059Z,22.30
2019-03-05T00:42:25.846Z,22.30
2019-03-05T00:45:00.942Z,22.30
2019-03-05T00:47:32.939Z,22.30
2019-03-05T00:50:05.153Z,22.30
2019-03-05T00:52:37.082Z,22.30
2019-03-05T00:55:18.213Z,22.30
2019-03-05T00:57:50.226Z,22.20
2019-03-05T01:00:22.244Z,22.30
2019-03-05T01:03:06.634Z,22.20
2019-03-05T01:05:38.587Z,22.30
2019-03-05T01:08:06.368Z,22.20
2019-03-05T01:10:34.070Z,22.20
2019-03-05T01:13:01.653Z,22.20
2019-03-05T01:15:29.366Z,22.30
2019-03-05T01:17:57.058Z,22.20
2019-03-05T01:20:24.860Z,22.20
2019-03-05T01:22:52.521Z,22.20
2019-03-05T01:25:30.792Z,22.20
2019-03-05T01:27:58.451Z,22.20
2019-03-05T01:30:27.682Z,22.20
2019-03-05T01:32:56.958Z,22.20
2019-03-05T01:35:26.201Z,22.20
2019-03-05T01:37:53.806Z,22.20
2019-03-05T01:40:23.088Z,22.20
2019-03-05T01:42:50.786Z,22.20
2019-03-05T01:45:18.407Z,22.20
2019-03-05T01:47:46.132Z,22.20
2019-03-05T01:50:13.800Z,22.20
2019-03-05T01:52:41.521Z,22.30
2019-03-05T01:55:09.205Z,22.20
2019-03-05T01:57:36.867Z,22.20
2019-03-05T02:00:05.890Z,22.20
2019-03-05T02:02:33.490Z,22.20
2019-03-05T02:05:01.172Z,22.20
2019-03-05T02:07:28.815Z,22.20
2019-03-05T02:09:56.398Z,22.20
2019-03-05T02:12:24.033Z,22.20
2019-03-05T02:14:51.649Z,22.20
2019-03-05T02:17:19.252Z,22.20
2019-03-05T02:19:46.863Z,22.20
2019-03-05T02:22:16.370Z,22.20
2019-03-05T02:25:00.492Z,22.20
2019-03-05T02:27:35.678Z,22.20
2019-03-05T02:30:22.901Z,22.20
2019-03-05T02:32:55.185Z,22.20
2019-03-05T02:35:27.509Z,22.20
2019-03-05T02:37:56.757Z,22.20
2019-03-05T02:40:42.554Z,22.20
2019-03-05T02:43:11.832Z,22.20
2019-03-05T02:45:43.861Z,22.20
2019-03-05T02:48:13.090Z,22.20
2019-03-05T02:50:48.584Z,22.20
2019-03-05T02:53:18.020Z,22.20
2019-03-05T02:56:02.123Z,22.20
2019-03-05T02:58:29.251Z,22.20
2019-03-05T03:01:04.504Z,22.20
2019-03-05T03:03:33.803Z,22.20
2019-03-05T03:06:05.818Z,22.20
2019-03-05T03:08:33.529Z,22.20
2019-03-05T03:11:01.200Z,22.20
2019-03-05T03:13:28.900Z,22.20
2019-03-05T03:15:56.513Z,22.20
2019-03-05T03:18:24.207Z,22.20
2019-03-05T03:20:51.881Z,22.20
2019-03-05T03:23:19.586Z,22.20
2019-03-05T03:25:47.248Z,22.20
2019-03-05T03:28:14.877Z,22.20
2019-03-05T03:30:42.561Z,22.20
2019-03-05T03:33:10.208Z,22.20
2019-03-05T03:35:37.864Z,22.20
2019-03-05T03:38:05.547Z,22.20
2019-03-05T03:40:33.194Z,22.20
2019-03-05T03:43:00.867Z,22.20
2019-03-05T03:45:28.498Z,22.20
2019-03-05T03:47:56.125Z,22.20
2019-03-05T03:50:23.711Z,22.20
2019-03-05T03:52:51.437Z,22.20
2019-03-05T03:55:19.100Z,22.20
2019-03-05T03:57:46.765Z,22.20
2019-03-05T04:00:15.539Z,22.20
2019-03-05T04:02:43.127Z,22.20
2019-03-05T04:05:10.786Z,22.20
2019-03-05T04:07:38.505Z,22.20
2019-03-05T04:10:07.762Z,22.20
2019-03-05T04:12:35.392Z,22.20
2019-03-05T04:15:03.139Z,22.20
2019-03-05T04:17:30.729Z,22.20
2019-03-05T04:19:58.385Z,22.20
2019-03-05T04:22:26.047Z,22.20
2019-03-05T04:24:53.691Z,22.20
2019-03-05T04:27:21.297Z,22.20
2019-03-05T04:29:48.923Z,22.20
2019-03-05T04:32:16.586Z,22.20
2019-03-05T04:34:44.240Z,22.20
2019-03-05T04:37:11.875Z,22.20
2019-03-05T04:39:39.499Z,22.20
2019-03-05T04:42:07.150Z,22.20
2019-03-05T04:44:36.430Z,22.20
2019-03-05T04:47:04.123Z,22.20
2019-03-05T04:49:33.501Z,22.20
2019-03-05T04:52:02.848Z,22.20
2019-03-05T04:54:30.583Z,22.20
2019-03-05T04:56:58.240Z,22.20
2019-03-05T04:59:25.824Z,22.20
2019-03-05T05:01:53.435Z,22.10
2019-03-05T05:04:21.137Z,22.20
2019-03-05T05:06:48.749Z,22.20
2019-03-05T05:09:16.395Z,22.10
2019-03-05T05:11:43.986Z,22.10
2019-03-05T05:14:11.690Z,22.10
2019-03-05T05:16:39.323Z,22.10
2019-03-05T05:19:06.987Z,22.20
2019-03-05T05:21:34.580Z,22.10
2019-03-05T05:24:02.195Z,22.10
2019-03-05T05:26:29.891Z,22.10
2019-03-05T05:28:57.518Z,22.20
2019-03-05T05:31:25.223Z,22.20
2019-03-05T05:33:52.801Z,22.20
2019-03-05T05:36:20.393Z,22.20
2019-03-05T05:38:48.012Z,22.10
2019-03-05T05:41:15.686Z,22.20
2019-03-05T05:43:43.337Z,22.20
2019-03-05T05:46:10.925Z,22.10
2019-03-05T05:48:38.573Z,22.20
2019-03-05T05:51:06.185Z,22.10
2019-03-05T05:53:33.915Z,22.10
2019-03-05T05:56:01.495Z,22.10
2019-03-05T05:58:29.118Z,22.10
2019-03-05T06:00:58.416Z,22.10
2019-03-05T06:03:26.008Z,22.10
2019-03-05T06:05:53.792Z,22.10
2019-03-05T06:08:21.496Z,22.10
2019-03-05T06:10:49.100Z,22.20
2019-03-05T06:13:16.691Z,22.20
2019-03-05T06:15:44.323Z,22.20
2019-03-05T06:18:12.028Z,22.20
2019-03-05T06:20:39.611Z,22.20
2019-03-05T06:23:07.223Z,22.20
2019-03-05T06:25:34.921Z,22.20
2019-03-05T06:28:02.536Z,22.20
2019-03-05T06:30:37.126Z,22.20
2019-03-05T06:33:04.860Z,22.20
2019-03-05T06:35:32.443Z,22.20
2019-03-05T06:38:00.043Z,22.20
2019-03-05T06:40:28.203Z,22.20
2019-03-05T06:42:55.932Z,22.20
2019-03-05T06:45:23.619Z,22.30
2019-03-05T06:47:51.395Z,22.30
2019-03-05T06:50:19.799Z,22.30
2019-03-05T06:52:47.548Z,22.30
2019-03-05T06:55:15.363Z,22.40
2019-03-05T06:57:42.990Z,22.40
2019-03-05T07:00:40.575Z,22.40
2019-03-05T07:03:08.967Z,22.40
2019-03-05T07:05:55.001Z,22.40
2019-03-05T07:08:22.593Z,22.40
2019-03-05T07:10:51.906Z,22.40
2019-03-05T07:13:19.610Z,22.40
2019-03-05T07:15:51.611Z,22.40
2019-03-05T07:18:23.513Z,22.40
2019-03-05T07:21:08.095Z,22.40
2019-03-05T07:23:54.070Z,22.40
2019-03-05T07:26:21.810Z,22.40
2019-03-05T07:28:49.454Z,22.40
2019-03-05T07:31:17.054Z,22.40
2019-03-05T07:33:44.714Z,22.40
2019-03-05T07:36:12.333Z,22.40
2019-03-05T07:38:39.989Z,22.40
2019-03-05T07:41:07.632Z,22.40
2019-03-05T07:43:36.690Z,22.30
2019-03-05T07:46:04.532Z,22.30
2019-03-05T07:48:32.193Z,22.30
2019-03-05T07:50:59.911Z,22.30
2019-03-05T07:53:27.520Z,22.30
2019-03-05T07:55:55.111Z,22.30
2019-03-05T07:58:22.782Z,22.30
2019-03-05T08:00:50.522Z,22.30
2019-03-05T08:03:18.202Z,22.30
2019-03-05T08:05:47.567Z,22.20
2019-03-05T08:08:33.303Z,22.20
2019-03-05T08:11:00.894Z,22.20
2019-03-05T08:13:29.466Z,22.20
2019-03-05T08:16:11.310Z,22.20
2019-03-05T08:18:39.025Z,22.20
2019-03-05T08:21:06.807Z,22.20
2019-03-05T08:23:34.388Z,22.20
2019-03-05T08:26:01.975Z,22.20
2019-03-05T08:28:29.830Z,22.20
2019-03-05T08:30:57.422Z,22.20
2019-03-05T08:33:25.034Z,22.20
2019-03-05T08:35:52.674Z,22.20
2019-03-05T08:38:20.260Z,22.20
2019-03-05T08:40:47.926Z,22.20
2019-03-05T08:43:15.698Z,22.20
2019-03-05T08:45:43.291Z,22.20
2019-03-05T08:48:10.866Z,22.20
2019-03-05T08:50:38.514Z,22.20
2019-03-05T08:53:06.101Z,22.20
2019-03-05T08:55:33.717Z,22.20
2019-03-05T08:58:01.450Z,22.20
2019-03-05T09:00:29.072Z,22.20
2019-03-05T09:02:56.717Z,22.20
2019-03-05T09:05:24.428Z,22.20
2019-03-05T09:07:52.032Z,22.20
2019-03-05T09:10:26.536Z,22.20
2019-03-05T09:12:54.176Z,22.00
2019-03-05T09:15:21.776Z,22.20
2019-03-05T09:17:49.452Z,22.20
2019-03-05T09:20:19.825Z,22.20
2019-03-05T09:22:47.431Z,22.20
2019-03-05T09:25:16.827Z,22.20
2019-03-05T09:27:44.482Z,22.20
2019-03-05T09:30:13.564Z,22.20
2019-03-05T09:32:41.261Z,22.20
2019-03-05T09:35:10.558Z,22.20
2019-03-05T09:37:38.296Z,22.20
2019-03-05T09:40:07.587Z,22.20
2019-03-05T09:42:39.829Z,22.10
2019-03-05T09:45:05.228Z,22.10
2019-03-05T09:47:32.857Z,22.20
2019-03-05T09:50:00.517Z,22.20
2019-03-05T09:52:40.210Z,22.10
2019-03-05T09:55:10.098Z,22.10
2019-03-05T09:57:39.346Z,22.10
2019-03-05T10:00:08.630Z,22.10
2019-03-05T10:02:36.317Z,22.10
2019-03-05T10:05:05.672Z,22.10
2019-03-05T10:07:33.369Z,22.10
2019-03-05T10:10:01.015Z,22.20
2019-03-05T10:12:30.152Z,22.10
2019-03-05T10:14:57.999Z,22.10
2019-03-05T10:17:25.607Z,22.10
2019-03-05T10:19:53.333Z,22.10
2019-03-05T10:22:20.925Z,22.10
2019-03-05T10:24:48.659Z,22.20
2019-03-05T10:27:16.572Z,22.20
2019-03-05T10:29:44.230Z,22.10
2019-03-05T10:32:11.844Z,22.10
2019-03-05T10:34:39.664Z,22.10
2019-03-05T10:37:14.481Z,22.10
2019-03-05T10:39:36.669Z,22.10
2019-03-05T10:42:04.556Z,22.10
2019-03-05T10:44:32.314Z,22.10
2019-03-05T10:46:59.917Z,22.20
2019-03-05T10:49:27.545Z,22.10
2019-03-05T10:51:55.156Z,22.10
2019-03-05T10:54:22.811Z,22.20
2019-03-05T10:56:50.481Z,22.10
2019-03-05T10:59:18.089Z,22.10
2019-03-05T11:01:46.176Z,22.20
2019-03-05T11:04:13.767Z,22.10
2019-03-05T11:06:41.375Z,22.10
2019-03-05T11:09:09.038Z,22.10
2019-03-05T11:11:36.640Z,22.10
2019-03-05T11:14:04.267Z,22.10
2019-03-05T11:16:31.969Z,22.10
2019-03-05T11:18:59.578Z,22.10
2019-03-05T11:21:27.227Z,22.10
2019-03-05T11:23:54.887Z,22.10
2019-03-05T11:26:22.479Z,22.10
2019-03-05T11:28:50.109Z,22.10
2019-03-05T11:31:17.781Z,22.10
2019-03-05T11:33:45.399Z,22.10
2019-03-05T11:36:13.023Z,22.10
2019-03-05T11:38:40.677Z,22.10
2019-03-05T11:41:08.323Z,22.10
2019-03-05T11:43:35.923Z,22.10
2019-03-05T11:46:03.927Z,22.10
2019-03-05T11:48:31.532Z,22.10
2019-03-05T11:50:59.195Z,22.10
2019-03-05T11:53:26.824Z,22.10
2019-03-05T11:55:54.505Z,22.10
2019-03-05T11:58:22.227Z,22.10
2019-03-05T12:01:09.312Z,22.10
2019-03-05T12:03:37.059Z,22.10
2019-03-05T12:06:04.675Z,22.10
2019-03-05T12:08:32.352Z,22.10
2019-03-05T12:10:59.999Z,22.10
2019-03-05T12:13:27.654Z,22.10
2019-03-05T12:15:56.725Z,22.10
2019-03-05T12:18:25.443Z,22.10
2019-03-05T12:20:53.272Z,22.10
2019-03-05T12:23:20.915Z,22.10
2019-03-05T12:25:48.569Z,22.10
2019-03-05T12:28:16.219Z,22.10
2019-03-05T12:30:43.896Z,22.20
2019-03-05T12:33:11.623Z,22.00
2019-03-05T12:35:39.239Z,22.10
2019-03-05T12:38:06.861Z,22.10
2019-03-05T12:40:34.590Z,22.10
2019-03-05T12:43:02.183Z,22.10
2019-03-05T12:45:29.778Z,22.10
2019-03-05T12:47:57.453Z,22.10
2019-03-05T12:50:28.923Z,22.10
2019-03-05T12:52:56.831Z,22.10
2019-03-05T12:55:24.595Z,22.20
2019-03-05T12:57:52.178Z,22.10
2019-03-05T13:00:27.469Z,22.10
2019-03-05T13:02:55.239Z,22.10
2019-03-05T13:05:22.823Z,22.10
2019-03-05T13:07:52.547Z,22.10
2019-03-05T13:10:23.405Z,22.10
2019-03-05T13:12:51.225Z,22.10
2019-03-05T13:15:20.254Z,22.10
2019-03-05T13:17:51.482Z,22.10
2019-03-05T13:20:17.346Z,22.10
2019-03-05T13:22:45.107Z,22.10
2019-03-05T13:25:14.446Z,22.10
2019-03-05T13:27:42.111Z,22.10
2019-03-05T13:30:14.114Z,22.10
2019-03-05T13:32:41.712Z,22.10
2019-03-05T13:35:10.300Z,22.10
2019-03-05T13:37:37.997Z,22.10
2019-03-05T13:40:07.226Z,22.10
2019-03-05T13:42:34.964Z,22.10
2019-03-05T13:45:05.334Z,22.10
2019-03-05T13:47:32.165Z,22.10
2019-03-05T13:50:11.299Z,22.10
2019-03-05T13:52:43.431Z,22.10
2019-03-05T13:55:15.530Z,22.10
2019-03-05T13:58:01.148Z,22.10
2019-03-05T14:00:28.789Z,22.10
2019-03-05T14:02:58.006Z,22.20
2019-03-05T14:05:43.786Z,22.20
2019-03-05T14:08:29.555Z,22.30
2019-03-05T14:10:57.286Z,22.30
2019-03-05T14:13:25.068Z,22.30
2019-03-05T14:15:52.920Z,22.30
2019-03-05T14:18:20.709Z,22.30
2019-03-05T14:20:48.398Z,22.30
2019-03-05T14:23:17.059Z,22.30
2019-03-05T14:25:44.862Z,22.30
2019-03-05T14:28:12.499Z,22.30
2019-03-05T14:30:40.242Z,22.40
2019-03-05T14:33:08.002Z,22.40
2019-03-05T14:35:35.706Z,22.40
2019-03-05T14:38:03.571Z,22.40
2019-03-05T14:40:31.262Z,22.40
2019-03-05T14:42:58.930Z,22.40
2019-03-05T14:45:27.900Z,22.40
2019-03-05T14:47:56.140Z,22.40
2019-03-05T14:50:26.479Z,22.50
2019-03-05T14:52:54.166Z,22.60
2019-03-05T14:55:21.910Z,22.60
2019-03-05T14:57:49.590Z,22.60
2019-03-05T15:00:18.367Z,22.50
2019-03-05T15:02:46.185Z,22.50
2019-03-05T15:05:13.885Z,22.50
2019-03-05T15:07:41.602Z,22.50
2019-03-05T15:10:09.477Z,22.50
2019-03-05T15:12:38.270Z,22.50
2019-03-05T15:15:07.573Z,22.40
2019-03-05T15:17:35.350Z,22.50
2019-03-05T15:20:03.331Z,22.50
2019-03-05T15:22:31.054Z,22.40
2019-03-05T15:24:58.743Z,22.40
2019-03-05T15:27:26.555Z,22.40
2019-03-05T15:29:54.230Z,22.50
2019-03-05T15:32:21.963Z,22.50
2019-03-05T15:34:49.727Z,22.50
2019-03-05T15:37:17.390Z,22.50
2019-03-05T15:39:45.146Z,22.50
2019-03-05T15:42:12.804Z,22.60
2019-03-05T15:44:40.513Z,22.60
2019-03-05T15:47:08.254Z,22.60
2019-03-05T15:49:36.080Z,22.60
2019-03-05T15:52:03.718Z,22.60
2019-03-05T15:54:31.393Z,22.60
2019-03-05T15:56:59.054Z,22.60
2019-03-05T15:59:26.896Z,22.60
2019-03-05T16:01:54.710Z,23.00
2019-03-05T16:04:22.339Z,23.20
2019-03-05T16:06:50.009Z,23.30
2019-03-05T16:09:17.753Z,23.30
2019-03-05T16:11:45.443Z,23.30
2019-03-05T16:14:13.380Z,23.30
2019-03-05T16:16:40.984Z,23.30
2019-03-05T16:19:12.367Z,23.30
2019-03-05T16:21:41.292Z,23.20
2019-03-05T16:24:07.211Z,23.20
2019-03-05T16:26:34.918Z,23.20
2019-03-05T16:29:02.717Z,23.20
2019-03-05T16:31:32.038Z,23.20
2019-03-05T16:34:04.253Z,23.10
2019-03-05T16:36:49.997Z,23.10
2019-03-05T16:39:22.442Z,23.10
2019-03-05T16:42:06.498Z,23.00
2019-03-05T16:44:52.527Z,22.90
2019-03-05T16:47:27.447Z,22.80
2019-03-05T16:49:56.755Z,22.90
2019-03-05T16:52:28.766Z,22.80
2019-03-05T16:55:10.053Z,22.90
2019-03-05T16:57:41.720Z,23.10
2019-03-05T17:00:23.223Z,23.20
2019-03-05T17:02:52.487Z,23.30
2019-03-05T17:05:31.813Z,23.40
2019-03-05T17:08:09.552Z,23.50
2019-03-05T17:10:53.817Z,23.60
2019-03-05T17:13:21.570Z,23.60
2019-03-05T17:15:49.228Z,23.60
2019-03-05T17:18:16.837Z,23.50
2019-03-05T17:20:44.551Z,23.40
2019-03-05T17:23:12.260Z,23.40
2019-03-05T17:25:39.961Z,23.30
2019-03-05T17:28:07.660Z,23.20
2019-03-05T17:30:35.370Z,23.20
2019-03-05T17:33:03.978Z,23.20
2019-03-05T17:35:31.875Z,23.30
2019-03-05T17:37:59.613Z,23.40
2019-03-05T17:40:27.243Z,23.30
2019-03-05T17:42:54.851Z,23.30
2019-03-05T17:45:25.574Z,23.30
2019-03-05T17:47:53.434Z,23.20
2019-03-05T17:50:21.095Z,23.10
2019-03-05T17:52:48.833Z,23.00
2019-03-05T17:55:24.076Z,22.90
2019-03-05T17:57:46.950Z,22.90
2019-03-05T18:00:26.335Z,22.50
2019-03-05T18:02:54.058Z,22.20
2019-03-05T18:05:21.643Z,21.80
2019-03-05T18:07:49.466Z,21.30
2019-03-05T18:10:17.072Z,20.40
2019-03-05T18:12:44.682Z,20.10
2019-03-05T18:15:13.222Z,19.80
2019-03-05T18:17:40.831Z,19.40
2019-03-05T18:20:10.531Z,19.40
2019-03-05T18:22:38.186Z,19.40
2019-03-05T18:25:07.671Z,19.10
2019-03-05T18:27:35.450Z,18.90
2019-03-05T18:30:04.393Z,18.70
2019-03-05T18:32:32.025Z,18.90
2019-03-05T18:34:59.686Z,19.10
2019-03-05T18:37:27.860Z,19.30
2019-03-05T18:39:55.545Z,19.40
2019-03-05T18:42:23.335Z,19.40
2019-03-05T18:44:51.154Z,19.40
2019-03-05T18:47:18.785Z,19.50
2019-03-05T18:49:46.425Z,19.60
2019-03-05T18:52:14.581Z,19.80
2019-03-05T18:54:42.247Z,20.10
2019-03-05T18:57:09.921Z,20.40
2019-03-05T18:59:37.599Z,20.70
2019-03-05T19:02:05.211Z,20.90
2019-03-05T19:04:32.889Z,21.10
2019-03-05T19:07:00.566Z,21.20
2019-03-05T19:09:28.263Z,21.40
2019-03-05T19:11:56.008Z,21.50
2019-03-05T19:14:23.611Z,21.60
2019-03-05T19:16:51.702Z,21.70
2019-03-05T19:19:19.458Z,21.70
2019-03-05T19:21:47.125Z,21.80
2019-03-05T19:24:14.803Z,21.90
2019-03-05T19:26:42.464Z,21.90
2019-03-05T19:29:10.073Z,22.00
2019-03-05T19:31:37.797Z,22.00
2019-03-05T19:34:05.450Z,22.10
2019-03-05T19:36:33.097Z,22.10
2019-03-05T19:39:00.849Z,22.20
2019-03-05T19:41:28.441Z,22.20
2019-03-05T19:43:56.400Z,22.20
2019-03-05T19:46:24.044Z,22.20
2019-03-05T19:48:51.707Z,22.20
2019-03-05T19:51:19.351Z,22.30
2019-03-05T19:53:46.940Z,22.30
2019-03-05T19:56:14.582Z,22.30
2019-03-05T19:58:42.191Z,22.30
2019-03-05T20:01:20.473Z,22.30
2019-03-05T20:03:48.176Z,22.30
2019-03-05T20:06:16.035Z,22.30
2019-03-05T20:08:44.024Z,22.30
2019-03-05T20:11:11.750Z,22.30
2019-03-05T20:13:39.504Z,22.30
2019-03-05T20:16:07.364Z,22.30
2019-03-05T20:18:34.949Z,22.30
2019-03-05T20:21:02.579Z,22.40
2019-03-05T20:23:30.284Z,22.40
2019-03-05T20:25:57.955Z,22.40
2019-03-05T20:28:25.637Z,22.40
2019-03-05T20:30:53.352Z,22.40
2019-03-05T20:33:20.949Z,22.40
2019-03-05T20:35:48.707Z,22.40
2019-03-05T20:38:16.426Z,22.40
2019-03-05T20:40:44.079Z,22.40
2019-03-05T20:43:14.511Z,22.40
2019-03-05T20:45:46.586Z,22.40
2019-03-05T20:48:14.502Z,22.30
2019-03-05T20:50:42.142Z,22.30
2019-03-05T20:53:09.765Z,22.30
2019-03-05T20:55:37.463Z,22.30
2019-03-05T20:58:05.083Z,22.30
2019-03-05T21:00:37.119Z,22.30
2019-03-05T21:03:06.508Z,22.30
2019-03-05T21:05:36.341Z,22.30
2019-03-05T21:08:04.028Z,22.30
2019-03-05T21:10:31.769Z,22.30
2019-03-05T21:12:59.439Z,22.30
2019-03-05T21:15:27.312Z,22.40
2019-03-05T21:17:55.073Z,22.50
2019-03-05T21:20:22.672Z,22.60
2019-03-05T21:22:50.418Z,22.60
2019-03-05T21:25:18.545Z,22.60
2019-03-05T21:27:46.423Z,22.60
2019-03-05T21:30:15.776Z,22.70
2019-03-05T21:32:43.432Z,22.60
2019-03-05T21:35:11.428Z,22.60
2019-03-05T21:37:39.224Z,22.60
2019-03-05T21:40:08.818Z,22.60
2019-03-05T21:42:36.436Z,22.60
2019-03-05T21:45:05.816Z,22.50
2019-03-05T21:47:33.472Z,22.50
2019-03-05T21:50:01.143Z,22.50
2019-03-05T21:52:28.870Z,22.50
2019-03-05T21:54:56.776Z,22.40
2019-03-05T21:57:24.536Z,22.40
2019-03-05T21:59:52.216Z,22.30
2019-03-05T22:02:22.196Z,22.30
2019-03-05T22:04:49.250Z,22.30
2019-03-05T22:07:16.873Z,22.20
2019-03-05T22:09:44.544Z,22.20
2019-03-05T22:12:12.288Z,22.30
2019-03-05T22:14:39.963Z,22.20
2019-03-05T22:17:07.664Z,22.20
2019-03-05T22:19:35.568Z,22.20
2019-03-05T22:22:03.254Z,22.20
2019-03-05T22:24:30.983Z,22.20
2019-03-05T22:26:58.660Z,22.20
2019-03-05T22:29:26.386Z,22.20
2019-03-05T22:31:54.138Z,22.20
2019-03-05T22:34:21.747Z,22.20
2019-03-05T22:36:49.412Z,22.20
2019-03-05T22:39:17.110Z,22.20
2019-03-05T22:41:44.818Z,22.20
2019-03-05T22:44:12.532Z,22.20
2019-03-05T22:46:40.413Z,22.20
2019-03-05T22:49:08.081Z,22.20
2019-03-05T22:51:35.745Z,22.20
2019-03-05T22:54:03.336Z,22.20
2019-03-05T22:56:30.994Z,22.20
2019-03-05T22:58:58.631Z,22.20
2019-03-05T23:01:28.056Z,22.20
2019-03-05T23:03:55.761Z,22.20
2019-03-05T23:06:23.421Z,22.20
2019-03-05T23:08:51.091Z,22.20
2019-03-05T23:11:18.753Z,22.10
2019-03-05T23:13:46.388Z,22.20
2019-03-05T23:16:14.204Z,22.20
2019-03-05T23:18:41.809Z,22.20
2019-03-05T23:21:09.531Z,22.20
2019-03-05T23:23:37.166Z,22.20
2019-03-05T23:26:05.738Z,22.10
2019-03-05T23:28:33.422Z,22.10
2019-03-05T23:31:01.139Z,22.10
2019-03-05T23:33:28.853Z,22.10
2019-03-05T23:35:58.232Z,22.10
2019-03-05T23:38:25.919Z,22.10
2019-03-05T23:40:53.629Z,22.10
2019-03-05T23:43:21.294Z,22.10
2019-03-05T23:45:49.042Z,22.10
2019-03-05T23:48:16.723Z,22.10
2019-03-05T23:50:44.386Z,22.10
2019-03-05T23:53:12.347Z,22.10
2019-03-05T23:55:39.945Z,22.10
2019-03-05T23:58:07.617Z,22.10
